Aviation Digital Data Service (ADDS)

Output produced by METARs form (1426 UTC 21 August 2019)
found at http://www.aviationweather.gov/metar/data/
 
TAF RJEC 211109Z 2112/2218 20005KT 9999 FEW008 BKN020 
     BECMG 2112/2114 36005KT 
     TEMPO 2115/2123 3000 BR FEW005 BKN008 
     BECMG 2120/2122 16005KT 
     BECMG 2215/2218 01005KT